CA-0144 weather

CLOSED Gladstone (Costella Field) Airport
Manitoba, Canada

Public forecast

Using degrees Celsius for public forecast. Weather courtesy of forecast.io.

METAR (pilot weather report)

Closest report is Southport Airport, 34.8 nm (64.5 km) ESE. Retrieved 2019/05/22 19:00 UTC (3 minutes ago):

CYPG 221900Z 03010G16KT 010V070 10SM -SHRA SCT035 OVC049 10/08 A2982 RMK SC3SC5 CVCTV CLD EMBD SLP105

TAF (pilot weather forecast)

Closest forecast is Southport Airport, 34.8 nm (64.5 km) ESE. Retrieved 2019/05/22 18:33 UTC (30 minutes ago):

TAF CYPG 221730Z 2218/2306 07018G28KT P6SM BKN040 OVC080 TEMPO 2218/2301 P6SM -SHRA BECMG 2223/2301 04010KT FM230100 04010KT P6SM BKN060 BECMG 2304/2306 34006KT RMK NXT FCST BY 230000Z